Time;durP1;ratioP1;P1;durP2;ratioP2;P2;SDS_P1;SDS_P2;PMS_P1;PMS_P2;Temp;Humidity;BMP_temperature;BMP_pressure;BME280_temperature;BME280_humidity;BME280_pressure;Samples;Min_cycle;Max_cycle;Signal;HPM_P1;HPM_P2
2023/01/20 00:02:46;;;;;;;;;;;16.40;48.00;;;;;;10326785;28;849;-79
2023/01/20 00:07:41;;;;;;;;;;;16.40;48.00;;;;;;10327539;28;888;-79
2023/01/20 00:12:36;;;;;;;;;;;16.40;47.90;;;;;;10327253;28;1050;-79
2023/01/20 00:17:32;;;;;;;;;;;16.40;48.00;;;;;;10327652;28;1969;-79
2023/01/20 00:22:27;;;;;;;;;;;16.40;47.90;;;;;;10328146;28;817;-79
2023/01/20 00:27:22;;;;;;;;;;;16.40;47.90;;;;;;10328222;28;801;-79
2023/01/20 00:32:18;;;;;;;;;;;16.40;48.40;;;;;;10327717;28;868;-79
2023/01/20 00:37:13;;;;;;;;;;;16.40;47.90;;;;;;10326808;28;1922;-79
2023/01/20 00:42:09;;;;;;;;;;;16.40;47.90;;;;;;10326165;28;892;-79
2023/01/20 00:47:04;;;;;;;;;;;16.40;47.90;;;;;;10327349;28;821;-79
2023/01/20 00:51:59;;;;;;;;;;;16.40;47.90;;;;;;10326338;28;880;-79
2023/01/20 00:56:55;;;;;;;;;;;16.40;47.90;;;;;;10325616;28;1985;-79
2023/01/20 01:01:53;;;;;;;;;;;16.40;47.90;;;;;;10326146;28;959;-79
2023/01/20 01:06:48;;;;;;;;;;;16.40;48.00;;;;;;10326661;28;916;-79
2023/01/20 01:11:43;;;;;;;;;;;16.40;47.90;;;;;;10326276;28;881;-79
2023/01/20 01:16:39;;;;;;;;;;;16.40;47.80;;;;;;10325140;28;1918;-79
2023/01/20 01:21:34;;;;;;;;;;;16.40;47.90;;;;;;10325688;28;867;-79
2023/01/20 01:26:30;;;;;;;;;;;16.40;47.80;;;;;;10325522;28;1032;-79
2023/01/20 01:31:25;;;;;;;;;;;16.40;48.50;;;;;;10325440;28;894;-79
2023/01/20 01:36:20;;;;;;;;;;;16.50;47.90;;;;;;10325947;28;1910;-79
2023/01/20 01:41:16;;;;;;;;;;;16.40;47.90;;;;;;10325852;28;832;-79
2023/01/20 01:46:11;;;;;;;;;;;16.40;47.80;;;;;;10325172;28;815;-79
2023/01/20 01:51:06;;;;;;;;;;;16.40;47.80;;;;;;10326494;28;869;-79
2023/01/20 01:56:02;;;;;;;;;;;16.40;47.80;;;;;;10325169;28;1967;-79
2023/01/20 02:00:57;;;;;;;;;;;16.40;47.80;;;;;;10325507;28;857;-79
2023/01/20 02:05:52;;;;;;;;;;;16.40;47.80;;;;;;10324899;28;985;-79
2023/01/20 02:10:48;;;;;;;;;;;16.40;47.80;;;;;;10325297;28;857;-79
2023/01/20 02:15:43;;;;;;;;;;;16.40;47.90;;;;;;10324541;28;1906;-79
2023/01/20 02:20:38;;;;;;;;;;;16.40;47.80;;;;;;10323895;28;845;-79
2023/01/20 02:25:34;;;;;;;;;;;16.40;47.80;;;;;;10331318;28;923;-79
2023/01/20 02:30:29;;;;;;;;;;;16.40;47.80;;;;;;10332527;28;871;-79
2023/01/20 02:35:25;;;;;;;;;;;16.40;47.90;;;;;;10331911;28;1914;-79
2023/01/20 02:40:20;;;;;;;;;;;16.40;47.80;;;;;;10331553;28;809;-79
2023/01/20 02:45:15;;;;;;;;;;;16.40;47.80;;;;;;10331358;28;887;-79
2023/01/20 02:50:11;;;;;;;;;;;16.40;47.90;;;;;;10331439;28;940;-79
2023/01/20 02:55:06;;;;;;;;;;;16.40;47.80;;;;;;10330357;28;1909;-79
2023/01/20 03:00:01;;;;;;;;;;;16.40;47.90;;;;;;10332134;28;820;-79
2023/01/20 03:04:57;;;;;;;;;;;16.30;47.90;;;;;;10331301;28;813;-78
2023/01/20 03:09:52;;;;;;;;;;;16.40;47.90;;;;;;10331078;28;809;-79
2023/01/20 03:14:47;;;;;;;;;;;16.40;47.80;;;;;;10330383;28;821;-79
2023/01/20 03:19:43;;;;;;;;;;;16.40;47.80;;;;;;10330700;28;1951;-79
2023/01/20 03:24:38;;;;;;;;;;;16.30;47.80;;;;;;10330001;28;829;-79
2023/01/20 03:29:34;;;;;;;;;;;16.40;47.80;;;;;;10330348;28;841;-79
2023/01/20 03:34:29;;;;;;;;;;;16.40;47.80;;;;;;10329523;28;878;-79
2023/01/20 03:39:24;;;;;;;;;;;16.30;47.80;;;;;;10329714;28;1914;-79
2023/01/20 03:44:20;;;;;;;;;;;16.40;47.90;;;;;;10329178;28;795;-79
2023/01/20 03:49:15;;;;;;;;;;;16.30;47.80;;;;;;10328980;28;916;-79
2023/01/20 03:54:10;;;;;;;;;;;16.30;47.90;;;;;;10329094;28;960;-79
2023/01/20 03:59:06;;;;;;;;;;;16.30;47.80;;;;;;10328466;28;1969;-79
2023/01/20 04:04:01;;;;;;;;;;;16.30;47.80;;;;;;10328398;28;929;-79
2023/01/20 04:08:56;;;;;;;;;;;16.30;47.90;;;;;;10329360;28;926;-79
2023/01/20 04:13:52;;;;;;;;;;;16.30;47.90;;;;;;10328514;28;821;-79
2023/01/20 04:18:47;;;;;;;;;;;16.30;48.00;;;;;;10327649;28;1965;-79
2023/01/20 04:23:42;;;;;;;;;;;16.30;47.90;;;;;;10327530;28;798;-79
2023/01/20 04:28:38;;;;;;;;;;;16.30;47.90;;;;;;10328542;28;844;-79
2023/01/20 04:33:33;;;;;;;;;;;16.30;47.90;;;;;;10327194;28;881;-79
2023/01/20 04:38:29;;;;;;;;;;;16.30;47.90;;;;;;10327611;28;1976;-79
2023/01/20 04:43:24;;;;;;;;;;;16.30;47.90;;;;;;10326915;28;849;-79
2023/01/20 04:48:19;;;;;;;;;;;16.30;47.90;;;;;;10326698;28;948;-79
2023/01/20 04:53:17;;;;;;;;;;;16.30;47.90;;;;;;10327091;28;821;-79
2023/01/20 04:58:13;;;;;;;;;;;16.40;47.90;;;;;;10326198;28;1947;-79
2023/01/20 05:03:08;;;;;;;;;;;16.30;47.90;;;;;;10326190;28;847;-79
2023/01/20 05:08:04;;;;;;;;;;;16.40;47.80;;;;;;10326770;28;1018;-79
2023/01/20 05:12:59;;;;;;;;;;;16.40;47.70;;;;;;10326630;28;786;-79
2023/01/20 05:17:55;;;;;;;;;;;16.40;47.70;;;;;;10325730;28;1967;-79
2023/01/20 05:22:50;;;;;;;;;;;16.40;47.60;;;;;;10325138;28;1253;-79
2023/01/20 05:27:45;;;;;;;;;;;16.40;47.70;;;;;;10325613;28;750;-79
2023/01/20 05:32:41;;;;;;;;;;;16.40;47.60;;;;;;10325486;28;750;-79
2023/01/20 05:37:36;;;;;;;;;;;16.50;47.60;;;;;;10325057;28;1960;-79
2023/01/20 05:42:32;;;;;;;;;;;16.50;47.60;;;;;;10325912;28;874;-79
2023/01/20 05:47:27;;;;;;;;;;;16.50;47.50;;;;;;10325263;28;768;-79
2023/01/20 05:52:22;;;;;;;;;;;16.50;47.60;;;;;;10325813;28;798;-79
2023/01/20 05:57:18;;;;;;;;;;;16.50;47.40;;;;;;10327207;28;2006;-79
2023/01/20 06:02:17;;;;;;;;;;;16.50;47.40;;;;;;10333146;28;894;-79
2023/01/20 06:07:12;;;;;;;;;;;16.60;48.00;;;;;;10332889;28;910;-79
2023/01/20 06:12:08;;;;;;;;;;;16.50;47.30;;;;;;10333865;28;892;-79
2023/01/20 06:17:03;;;;;;;;;;;16.50;47.30;;;;;;10332498;28;1898;-78
2023/01/20 06:21:58;;;;;;;;;;;16.50;47.30;;;;;;10333557;28;871;-78
2023/01/20 06:26:54;;;;;;;;;;;16.50;48.00;;;;;;10331547;28;861;-79
2023/01/20 06:31:49;;;;;;;;;;;16.50;47.30;;;;;;10331896;28;770;-79
2023/01/20 06:36:45;;;;;;;;;;;16.50;47.40;;;;;;10331654;28;1969;-79
2023/01/20 06:41:40;;;;;;;;;;;16.50;47.40;;;;;;10331612;28;766;-79
2023/01/20 06:46:35;;;;;;;;;;;16.50;47.40;;;;;;10331417;28;833;-79
2023/01/20 06:51:32;;;;;;;;;;;16.50;47.30;;;;;;10331835;28;872;-79
2023/01/20 06:56:27;;;;;;;;;;;16.50;47.30;;;;;;10330985;28;1890;-79
2023/01/20 07:01:22;;;;;;;;;;;16.50;47.30;;;;;;10331631;28;939;-79
2023/01/20 07:06:18;;;;;;;;;;;16.50;47.30;;;;;;10330712;28;781;-79
2023/01/20 07:11:13;;;;;;;;;;;16.50;47.30;;;;;;10330074;28;776;-79
2023/01/20 07:16:09;;;;;;;;;;;16.50;47.30;;;;;;10330219;28;1947;-79
2023/01/20 07:21:04;;;;;;;;;;;16.50;47.20;;;;;;10330185;28;955;-75
2023/01/20 07:25:59;;;;;;;;;;;16.50;47.30;;;;;;10329970;28;822;-75
2023/01/20 07:30:55;;;;;;;;;;;16.50;47.30;;;;;;10329727;28;976;-75
2023/01/20 07:35:51;;;;;;;;;;;16.60;47.30;;;;;;10329061;28;1906;-75
2023/01/20 07:40:46;;;;;;;;;;;16.60;47.30;;;;;;10354193;28;1573;-75
2023/01/20 07:45:41;;;;;;;;;;;16.60;47.40;;;;;;10369494;28;854;-75
2023/01/20 07:50:37;;;;;;;;;;;16.60;47.40;;;;;;10370081;28;782;-74
2023/01/20 07:55:32;;;;;;;;;;;16.60;47.40;;;;;;10369405;28;1890;-75
2023/01/20 08:00:27;;;;;;;;;;;16.60;47.40;;;;;;10369749;28;936;-77
2023/01/20 08:05:23;;;;;;;;;;;16.60;47.30;;;;;;10370793;28;1052;-78
2023/01/20 08:10:18;;;;;;;;;;;16.60;47.40;;;;;;10368774;28;919;-80
2023/01/20 08:15:14;;;;;;;;;;;16.60;47.40;;;;;;10351485;28;1905;-82
2023/01/20 08:20:09;;;;;;;;;;;16.60;47.30;;;;;;10368378;28;772;-75
2023/01/20 08:25:05;;;;;;;;;;;16.60;47.30;;;;;;10369952;28;862;-76
2023/01/20 08:30:00;;;;;;;;;;;16.60;47.60;;;;;;10368713;28;857;-76
2023/01/20 08:34:55;;;;;;;;;;;16.60;47.60;;;;;;10368274;28;1096;-76
2023/01/20 08:39:51;;;;;;;;;;;16.50;47.70;;;;;;10368255;28;1977;-76
2023/01/20 08:44:46;;;;;;;;;;;16.50;48.10;;;;;;10367483;28;1362;-76
2023/01/20 08:49:42;;;;;;;;;;;16.60;48.40;;;;;;10367922;28;837;-76
2023/01/20 08:54:37;;;;;;;;;;;16.60;48.20;;;;;;10364422;28;1077;-81
2023/01/20 08:59:32;;;;;;;;;;;16.60;48.20;;;;;;10331696;28;1953;-81
2023/01/20 09:04:28;;;;;;;;;;;16.60;48.20;;;;;;10324997;28;1023;-77
2023/01/20 09:09:23;;;;;;;;;;;16.60;48.10;;;;;;10325866;28;852;-82
2023/01/20 09:14:18;;;;;;;;;;;16.60;48.20;;;;;;10324878;28;821;-81
2023/01/20 09:19:14;;;;;;;;;;;16.60;48.00;;;;;;10325764;28;1898;-82
2023/01/20 09:24:09;;;;;;;;;;;16.60;48.10;;;;;;10324237;28;975;-82
2023/01/20 09:29:08;;;;;;;;;;;16.60;48.10;;;;;;10325216;28;903;-75
2023/01/20 09:34:03;;;;;;;;;;;16.70;48.30;;;;;;10326467;28;876;-75
2023/01/20 09:44:12;;;;;;;;;;;16.70;48.30;;;;;;10325412;28;484;-78
2023/01/20 09:54:22;;;;;;;;;;;16.70;48.40;;;;;;10324309;28;690;-77
2023/01/20 09:59:17;;;;;;;;;;;16.70;48.30;;;;;;10324904;28;1894;-71
2023/01/20 10:04:12;;;;;;;;;;;16.80;48.10;;;;;;10324948;28;858;-72
2023/01/20 10:09:08;;;;;;;;;;;17.00;48.90;;;;;;10324823;28;1003;-73
2023/01/20 10:14:03;;;;;;;;;;;17.10;49.10;;;;;;10324108;28;829;-75
2023/01/20 10:18:58;;;;;;;;;;;17.20;49.10;;;;;;10324605;28;1894;-69
2023/01/20 10:23:54;;;;;;;;;;;17.20;48.80;;;;;;10324866;28;809;-73
2023/01/20 10:28:49;;;;;;;;;;;17.20;49.10;;;;;;10360819;28;1192;-83
2023/01/20 10:33:45;;;;;;;;;;;17.20;49.10;;;;;;10365136;28;810;-85
2023/01/20 10:38:40;;;;;;;;;;;16.90;49.00;;;;;;10365259;28;1977;-84
2023/01/20 10:43:35;;;;;;;;;;;16.80;48.90;;;;;;10367267;28;785;-84
2023/01/20 10:48:31;;;;;;;;;;;16.70;48.90;;;;;;10372895;28;837;-84
2023/01/20 10:53:26;;;;;;;;;;;16.70;48.90;;;;;;10372519;28;898;-84
2023/01/20 10:58:22;;;;;;;;;;;16.70;48.70;;;;;;10372656;28;1960;-74
2023/01/20 11:03:17;;;;;;;;;;;16.70;48.40;;;;;;10372067;28;892;-72
2023/01/20 11:08:12;;;;;;;;;;;16.70;48.50;;;;;;10371752;28;1039;-72
2023/01/20 11:13:08;;;;;;;;;;;16.70;48.40;;;;;;10371695;28;939;-72
2023/01/20 11:18:03;;;;;;;;;;;16.70;48.20;;;;;;10372155;28;1870;-72
2023/01/20 11:22:58;;;;;;;;;;;16.70;48.10;;;;;;10363208;28;1100;-74
2023/01/20 11:27:54;;;;;;;;;;;16.70;48.00;;;;;;10330481;28;869;-74
2023/01/20 11:32:49;;;;;;;;;;;16.60;47.90;;;;;;10330101;28;924;-75
2023/01/20 11:37:45;;;;;;;;;;;16.70;47.80;;;;;;10329446;28;2032;-75
2023/01/20 11:42:40;;;;;;;;;;;16.70;47.70;;;;;;10329685;28;792;-83
2023/01/20 11:47:36;;;;;;;;;;;16.60;47.60;;;;;;10329014;28;1288;-78
2023/01/20 11:52:31;;;;;;;;;;;16.60;47.60;;;;;;10328530;28;882;-75
2023/01/20 11:57:26;;;;;;;;;;;16.80;47.60;;;;;;10352797;28;1957;-76
2023/01/20 12:02:26;;;;;;;;;;;16.80;47.70;;;;;;10369424;28;818;-76
2023/01/20 12:07:21;;;;;;;;;;;16.80;47.70;;;;;;10369252;28;957;-76
2023/01/20 12:12:17;;;;;;;;;;;16.90;47.30;;;;;;10369055;28;825;-75
2023/01/20 12:17:13;;;;;;;;;;;16.80;47.70;;;;;;10369532;28;2006;-75
2023/01/20 12:22:08;;;;;;;;;;;16.90;47.80;;;;;;10368708;28;1114;-76
2023/01/20 12:27:04;;;;;;;;;;;16.90;47.80;;;;;;10369187;28;869;-76
2023/01/20 12:31:59;;;;;;;;;;;17.00;47.90;;;;;;10368655;28;840;-75
2023/01/20 12:36:55;;;;;;;;;;;17.10;47.80;;;;;;10367678;28;1973;-71
2023/01/20 12:41:51;;;;;;;;;;;17.00;47.90;;;;;;10368012;28;1004;-68
2023/01/20 12:46:46;;;;;;;;;;;17.10;48.00;;;;;;10367785;28;821;-69
2023/01/20 12:51:41;;;;;;;;;;;17.20;48.50;;;;;;10367745;28;885;-69
2023/01/20 12:56:38;;;;;;;;;;;17.00;48.30;;;;;;10367940;28;1963;-68
2023/01/20 13:01:34;;;;;;;;;;;16.90;48.30;;;;;;10367314;28;921;-71
2023/01/20 13:06:29;;;;;;;;;;;17.00;48.40;;;;;;10366681;28;761;-70
2023/01/20 13:11:24;;;;;;;;;;;17.00;48.30;;;;;;10366861;28;854;-70
2023/01/20 13:16:20;;;;;;;;;;;17.00;48.30;;;;;;10366793;28;1981;-70
2023/01/20 13:21:17;;;;;;;;;;;17.00;48.40;;;;;;10366574;28;789;-70
2023/01/20 13:26:13;;;;;;;;;;;17.00;48.60;;;;;;10366199;28;1258;-67
2023/01/20 13:31:08;;;;;;;;;;;17.30;49.00;;;;;;10329191;28;876;-67
2023/01/20 13:36:04;;;;;;;;;;;17.50;49.80;;;;;;10325725;28;1961;-67
2023/01/20 13:41:02;;;;;;;;;;;17.50;49.00;;;;;;10325714;28;869;-68
2023/01/20 13:45:57;;;;;;;;;;;17.60;48.90;;;;;;10325090;28;953;-70
2023/01/20 13:50:52;;;;;;;;;;;17.80;49.40;;;;;;10324997;28;877;-69
2023/01/20 13:55:48;;;;;;;;;;;17.80;49.30;;;;;;10324857;28;1902;-70
2023/01/20 14:00:43;;;;;;;;;;;17.80;49.40;;;;;;10324689;28;960;-70
2023/01/20 14:05:39;;;;;;;;;;;17.70;49.40;;;;;;10324662;28;907;-70
2023/01/20 14:10:34;;;;;;;;;;;17.70;49.50;;;;;;10324197;28;922;-71
2023/01/20 14:15:30;;;;;;;;;;;17.60;49.50;;;;;;10324274;28;1898;-70
2023/01/20 14:20:26;;;;;;;;;;;17.60;49.40;;;;;;10329250;28;878;-71
2023/01/20 14:25:21;;;;;;;;;;;17.70;49.50;;;;;;10331224;28;891;-70
2023/01/20 14:30:17;;;;;;;;;;;17.60;49.40;;;;;;10332259;28;852;-71
2023/01/20 14:35:12;;;;;;;;;;;17.60;49.40;;;;;;10331148;28;1399;-70
2023/01/20 14:40:07;;;;;;;;;;;17.60;49.40;;;;;;10331165;28;1910;-71
2023/01/20 14:45:03;;;;;;;;;;;17.60;49.40;;;;;;10331739;28;881;-71
2023/01/20 14:49:58;;;;;;;;;;;17.40;49.50;;;;;;10330421;28;922;-71
2023/01/20 14:54:55;;;;;;;;;;;17.30;49.70;;;;;;10333895;28;1203;-75
2023/01/20 14:59:50;;;;;;;;;;;17.20;49.70;;;;;;10371559;28;1966;-75
2023/01/20 15:04:45;;;;;;;;;;;17.10;49.70;;;;;;10371426;28;797;-76
2023/01/20 15:09:41;;;;;;;;;;;17.10;49.60;;;;;;10371623;28;975;-74
2023/01/20 15:14:36;;;;;;;;;;;17.10;49.60;;;;;;10371864;28;863;-73
2023/01/20 15:19:32;;;;;;;;;;;17.10;49.60;;;;;;10371050;28;1910;-74
2023/01/20 15:24:27;;;;;;;;;;;17.10;49.50;;;;;;10371374;28;824;-76
2023/01/20 15:29:22;;;;;;;;;;;17.10;49.40;;;;;;10371388;28;920;-74
2023/01/20 15:34:18;;;;;;;;;;;17.10;49.30;;;;;;10370976;28;1156;-74
2023/01/20 15:39:13;;;;;;;;;;;17.10;49.30;;;;;;10371001;28;1986;-73
2023/01/20 15:44:09;;;;;;;;;;;17.00;49.20;;;;;;10371201;28;896;-73
2023/01/20 15:49:04;;;;;;;;;;;17.00;49.80;;;;;;10370599;28;909;-74
2023/01/20 15:53:59;;;;;;;;;;;17.00;49.20;;;;;;10371013;28;861;-74
2023/01/20 15:58:55;;;;;;;;;;;17.00;49.20;;;;;;10369992;28;1968;-73
2023/01/20 16:03:50;;;;;;;;;;;17.00;49.10;;;;;;10370396;28;920;-73
2023/01/20 16:08:45;;;;;;;;;;;17.00;49.00;;;;;;10370138;28;843;-75
2023/01/20 16:13:41;;;;;;;;;;;17.00;49.10;;;;;;10369614;28;868;-73
2023/01/20 16:18:36;;;;;;;;;;;17.00;49.00;;;;;;10368844;28;1906;-76
2023/01/20 16:23:32;;;;;;;;;;;17.00;49.00;;;;;;10368274;28;980;-78
2023/01/20 16:28:27;;;;;;;;;;;17.00;48.90;;;;;;10368335;28;809;-73
2023/01/20 16:33:22;;;;;;;;;;;17.00;48.90;;;;;;10368294;28;807;-67
2023/01/20 16:38:18;;;;;;;;;;;17.30;49.30;;;;;;10367442;28;1906;-67
2023/01/20 16:43:13;;;;;;;;;;;17.40;49.50;;;;;;10367193;28;877;-67
2023/01/20 16:48:08;;;;;;;;;;;17.50;49.40;;;;;;10368372;28;825;-67
2023/01/20 16:53:04;;;;;;;;;;;17.50;49.40;;;;;;10367972;28;774;-70
2023/01/20 16:57:59;;;;;;;;;;;17.60;49.40;;;;;;10350336;28;1959;-71
2023/01/20 17:02:55;;;;;;;;;;;17.70;49.40;;;;;;10367202;28;785;-71
2023/01/20 17:07:50;;;;;;;;;;;17.60;49.40;;;;;;10367925;28;1038;-70
2023/01/20 17:12:45;;;;;;;;;;;17.60;49.40;;;;;;10366942;28;950;-68
2023/01/20 17:17:41;;;;;;;;;;;17.60;49.20;;;;;;10366781;28;1955;-69
2023/01/20 17:22:36;;;;;;;;;;;17.50;49.30;;;;;;10367187;28;821;-71
2023/01/20 17:27:31;;;;;;;;;;;17.50;49.20;;;;;;10367195;28;1030;-71
2023/01/20 17:32:27;;;;;;;;;;;17.50;49.30;;;;;;10366460;28;859;-71
2023/01/20 17:37:22;;;;;;;;;;;17.50;49.50;;;;;;10367085;28;1910;-73
2023/01/20 17:42:18;;;;;;;;;;;17.50;49.40;;;;;;10366693;28;854;-71
2023/01/20 17:47:13;;;;;;;;;;;17.50;49.30;;;;;;10366066;28;797;-71
2023/01/20 17:52:08;;;;;;;;;;;17.50;49.30;;;;;;10366981;28;782;-71
2023/01/20 17:57:04;;;;;;;;;;;17.50;49.40;;;;;;10374439;28;1910;-74
2023/01/20 18:01:59;;;;;;;;;;;17.40;49.60;;;;;;10374806;28;879;-75
2023/01/20 18:06:54;;;;;;;;;;;17.30;49.70;;;;;;10374096;28;994;-76
2023/01/20 18:11:50;;;;;;;;;;;17.20;49.90;;;;;;10373935;28;860;-76
2023/01/20 18:16:46;;;;;;;;;;;17.20;49.70;;;;;;10373964;28;1887;-72
2023/01/20 18:21:42;;;;;;;;;;;17.10;49.70;;;;;;10374612;28;851;-71
2023/01/20 18:26:37;;;;;;;;;;;17.10;49.60;;;;;;10373016;28;1002;-71
2023/01/20 18:31:32;;;;;;;;;;;17.10;49.50;;;;;;10373500;28;806;-71
2023/01/20 18:36:28;;;;;;;;;;;17.20;49.40;;;;;;10372890;28;1961;-71
2023/01/20 18:41:23;;;;;;;;;;;17.10;49.30;;;;;;10373674;28;834;-71
2023/01/20 18:46:19;;;;;;;;;;;17.10;49.40;;;;;;10373525;28;793;-71
2023/01/20 18:51:14;;;;;;;;;;;17.10;49.30;;;;;;10373951;28;860;-71
2023/01/20 18:56:09;;;;;;;;;;;17.10;49.30;;;;;;10372473;28;1902;-71
2023/01/20 19:01:05;;;;;;;;;;;17.10;49.10;;;;;;10373555;28;884;-71
2023/01/20 19:06:00;;;;;;;;;;;17.10;49.10;;;;;;10353807;28;794;-71
2023/01/20 19:10:55;;;;;;;;;;;17.10;49.10;;;;;;10371951;28;867;-71
2023/01/20 19:15:51;;;;;;;;;;;17.10;49.00;;;;;;10371071;28;1959;-71
2023/01/20 19:20:46;;;;;;;;;;;17.00;49.00;;;;;;10371474;28;1053;-70
2023/01/20 19:25:41;;;;;;;;;;;17.10;48.70;;;;;;10371975;28;794;-70
2023/01/20 19:30:37;;;;;;;;;;;17.10;48.80;;;;;;10371227;28;780;-70
2023/01/20 19:35:32;;;;;;;;;;;17.10;48.70;;;;;;10370712;28;1914;-70
2023/01/20 19:40:28;;;;;;;;;;;17.10;48.60;;;;;;10370783;28;925;-72
2023/01/20 19:45:23;;;;;;;;;;;17.10;48.70;;;;;;10371238;28;835;-73
2023/01/20 19:50:18;;;;;;;;;;;17.10;48.60;;;;;;10370441;28;989;-73
2023/01/20 19:55:14;;;;;;;;;;;17.10;48.60;;;;;;10370842;28;817;-73
2023/01/20 20:00:09;;;;;;;;;;;17.10;48.60;;;;;;10370206;28;1959;-73
2023/01/20 20:05:05;;;;;;;;;;;17.10;48.60;;;;;;10369600;28;1017;-74
2023/01/20 20:10:00;;;;;;;;;;;17.10;48.50;;;;;;10369264;28;898;-73
2023/01/20 20:14:56;;;;;;;;;;;17.10;48.50;;;;;;10369403;28;833;-75
2023/01/20 20:19:51;;;;;;;;;;;17.10;48.60;;;;;;10368871;28;1902;-74
2023/01/20 20:24:46;;;;;;;;;;;17.10;48.50;;;;;;10369430;28;839;-75
2023/01/20 20:29:42;;;;;;;;;;;17.10;48.50;;;;;;10368596;28;797;-74
2023/01/20 20:34:37;;;;;;;;;;;17.20;48.50;;;;;;10369565;28;865;-72
2023/01/20 20:39:34;;;;;;;;;;;17.20;48.40;;;;;;10367897;28;1901;-72
2023/01/20 20:44:29;;;;;;;;;;;17.10;48.40;;;;;;10367965;28;833;-72
2023/01/20 20:49:24;;;;;;;;;;;17.10;48.50;;;;;;10367836;28;942;-72
2023/01/20 20:54:20;;;;;;;;;;;17.10;48.50;;;;;;10368152;28;901;-72
2023/01/20 20:59:18;;;;;;;;;;;17.10;48.50;;;;;;10367565;28;1923;-73
2023/01/20 21:04:14;;;;;;;;;;;17.00;48.50;;;;;;10367174;28;890;-76
2023/01/20 21:09:09;;;;;;;;;;;17.00;48.60;;;;;;10366397;28;1247;-76
2023/01/20 21:14:06;;;;;;;;;;;17.00;48.50;;;;;;10368120;28;886;-76
2023/01/20 21:19:02;;;;;;;;;;;17.00;48.50;;;;;;10367267;28;1964;-76
2023/01/20 21:23:57;;;;;;;;;;;17.00;48.50;;;;;;10367283;28;858;-76
2023/01/20 21:28:53;;;;;;;;;;;17.00;48.40;;;;;;10367293;28;871;-76
2023/01/20 21:33:48;;;;;;;;;;;17.00;48.30;;;;;;10367235;28;798;-73
2023/01/20 21:38:45;;;;;;;;;;;17.00;48.30;;;;;;10365949;28;1969;-71
2023/01/20 21:54:10;;;;;;;;;;;17.00;48.20;;;;;;10324903;28;620;-73
2023/01/20 21:59:06;;;;;;;;;;;17.00;48.20;;;;;;10325669;28;1917;-73
2023/01/20 22:04:01;;;;;;;;;;;17.00;48.30;;;;;;10325044;28;930;-73
2023/01/20 22:09:00;;;;;;;;;;;17.00;48.40;;;;;;10325506;28;811;-73
2023/01/20 22:13:55;;;;;;;;;;;17.00;48.40;;;;;;10325439;28;872;-73
2023/01/20 22:18:51;;;;;;;;;;;17.00;48.30;;;;;;10324068;28;1980;-74
2023/01/20 22:23:46;;;;;;;;;;;17.00;48.40;;;;;;10324621;28;917;-74
2023/01/20 22:28:41;;;;;;;;;;;17.00;48.30;;;;;;10324582;28;802;-72
2023/01/20 22:33:37;;;;;;;;;;;17.00;48.40;;;;;;10312821;28;1186;-72
2023/01/20 22:38:33;;;;;;;;;;;17.00;48.30;;;;;;10283586;28;1910;-76
2023/01/20 22:43:28;;;;;;;;;;;17.00;48.30;;;;;;10290993;28;810;-73
2023/01/20 22:48:23;;;;;;;;;;;16.90;48.80;;;;;;10290774;28;882;-74
2023/01/20 22:53:19;;;;;;;;;;;17.00;48.20;;;;;;10290520;28;884;-74
2023/01/20 22:58:15;;;;;;;;;;;17.00;48.20;;;;;;10290473;28;1905;-70
2023/01/20 23:03:11;;;;;;;;;;;16.90;48.10;;;;;;10290291;28;937;-74
2023/01/20 23:08:06;;;;;;;;;;;16.90;48.10;;;;;;10290851;28;898;-74
2023/01/20 23:13:01;;;;;;;;;;;16.90;48.10;;;;;;10290027;28;866;-74
2023/01/20 23:17:57;;;;;;;;;;;16.90;48.00;;;;;;10289758;28;1963;-74
2023/01/20 23:22:52;;;;;;;;;;;16.90;48.10;;;;;;10289047;28;976;-74
2023/01/20 23:27:47;;;;;;;;;;;16.90;48.10;;;;;;10289465;28;928;-73
2023/01/20 23:32:43;;;;;;;;;;;16.90;48.00;;;;;;10288041;28;765;-74
2023/01/20 23:37:39;;;;;;;;;;;16.90;48.00;;;;;;10288151;28;1980;-74
2023/01/20 23:42:34;;;;;;;;;;;16.90;47.90;;;;;;10289587;28;867;-74
2023/01/20 23:47:29;;;;;;;;;;;16.90;48.10;;;;;;10288852;28;980;-74
2023/01/20 23:52:25;;;;;;;;;;;16.80;48.00;;;;;;10288310;28;861;-74
2023/01/20 23:57:20;;;;;;;;;;;16.80;48.00;;;;;;10288242;28;1972;-74
